Time;durP1;ratioP1;P1;durP2;ratioP2;P2;SDS_P1;SDS_P2;PMS_P1;PMS_P2;Temp;Humidity;BMP_temperature;BMP_pressure;BME280_temperature;BME280_humidity;BME280_pressure;Samples;Min_cycle;Max_cycle;Signal;HPM_P1;HPM_P2
2021/07/19 00:00:39;;;;;;;7.25;4.70;;;25.10;65.50;;;;;;4338535;32;20162;-69
2021/07/19 00:03:05;;;;;;;7.25;5.25;;;25.10;63.50;;;;;;4338278;32;20085;-68
2021/07/19 00:05:31;;;;;;;8.18;5.20;;;25.00;64.10;;;;;;4338216;32;20081;-68
2021/07/19 00:07:57;;;;;;;7.03;4.87;;;25.00;64.30;;;;;;4362954;32;20178;-68
2021/07/19 00:10:24;;;;;;;8.38;4.90;;;25.00;63.30;;;;;;4350635;32;20457;-69
2021/07/19 00:12:51;;;;;;;6.53;5.35;;;25.10;62.00;;;;;;4326374;32;20163;-67
2021/07/19 00:15:21;;;;;;;8.85;4.82;;;25.10;61.80;;;;;;4349242;32;20050;-68
2021/07/19 00:17:47;;;;;;;6.80;4.37;;;25.10;61.40;;;;;;4370102;32;20650;-68
2021/07/19 00:20:14;;;;;;;6.22;4.68;;;25.10;61.30;;;;;;4357246;32;20122;-68
2021/07/19 00:22:40;;;;;;;7.18;4.78;;;25.00;61.80;;;;;;4356759;32;20159;-68
2021/07/19 00:25:08;;;;;;;7.78;4.60;;;25.00;62.00;;;;;;4344015;32;20086;-68
2021/07/19 00:27:34;;;;;;;6.57;5.20;;;25.00;61.70;;;;;;4354713;32;20089;-70
2021/07/19 00:30:01;;;;;;;7.12;5.25;;;25.00;61.70;;;;;;4345384;32;20083;-68
2021/07/19 00:32:27;;;;;;;8.02;5.10;;;25.00;61.40;;;;;;4338098;32;20173;-67
2021/07/19 00:34:53;;;;;;;6.95;4.85;;;25.00;60.80;;;;;;4337643;32;20059;-68
2021/07/19 00:37:19;;;;;;;7.22;4.68;;;25.10;60.50;;;;;;4363591;32;20141;-68
2021/07/19 00:39:46;;;;;;;7.65;4.82;;;25.00;60.70;;;;;;4340654;32;20084;-70
2021/07/19 00:42:12;;;;;;;6.80;4.97;;;25.00;60.80;;;;;;4337865;32;20082;-68
2021/07/19 00:44:38;;;;;;;7.70;5.18;;;25.00;61.00;;;;;;4362438;32;20086;-69
2021/07/19 00:47:05;;;;;;;6.60;5.10;;;25.00;61.30;;;;;;4337627;32;20078;-68
2021/07/19 00:49:33;;;;;;;7.40;5.43;;;25.00;61.40;;;;;;4325541;32;20084;-68
2021/07/19 00:51:59;;;;;;;6.95;5.07;;;25.00;61.70;;;;;;4326213;32;20085;-67
2021/07/19 00:54:26;;;;;;;6.72;4.75;;;25.00;62.60;;;;;;4338046;32;20062;-68
2021/07/19 00:56:55;;;;;;;6.37;4.90;;;24.90;63.50;;;;;;4325641;32;20155;-68
2021/07/19 00:59:23;;;;;;;7.40;4.82;;;24.90;62.90;;;;;;4350060;32;20472;-70
2021/07/19 01:01:50;;;;;;;6.05;4.78;;;25.00;63.40;;;;;;4338193;32;20129;-67
2021/07/19 01:04:17;;;;;;;6.00;4.50;;;24.90;63.60;;;;;;4338363;32;20503;-68
2021/07/19 01:06:44;;;;;;;7.93;5.18;;;24.90;64.00;;;;;;4337713;32;20103;-68
2021/07/19 01:09:10;;;;;;;7.22;4.45;;;24.90;63.20;;;;;;4313533;32;20162;-69
2021/07/19 01:11:37;;;;;;;7.25;5.12;;;25.00;62.50;;;;;;4337662;32;20090;-68
2021/07/19 01:14:03;;;;;;;6.05;4.50;;;25.00;64.00;;;;;;4337847;32;20078;-69
2021/07/19 01:16:30;;;;;;;6.03;4.70;;;25.00;63.00;;;;;;4349859;32;20101;-68
2021/07/19 01:18:56;;;;;;;6.68;4.70;;;24.90;63.70;;;;;;4337778;32;20089;-68
2021/07/19 01:22:00;;;;;;;6.68;4.20;;;25.00;63.80;;;;;;4350294;32;20071;-68
2021/07/19 01:24:41;;;;;;;6.78;4.55;;;25.00;63.30;;;;;;4336874;32;20524;-67
2021/07/19 01:27:56;;;;;;;8.18;5.12;;;25.00;63.70;;;;;;4350422;32;20089;-68
2021/07/19 01:30:24;;;;;;;6.53;4.65;;;24.90;65.40;;;;;;4342580;32;20600;-68
2021/07/19 01:32:50;;;;;;;7.00;5.70;;;24.90;65.40;;;;;;4328642;32;20169;-68
2021/07/19 01:35:16;;;;;;;6.62;4.90;;;24.90;64.80;;;;;;4328096;32;20160;-68
2021/07/19 01:37:44;;;;;;;6.85;4.45;;;25.00;64.50;;;;;;4340582;32;20456;-67
2021/07/19 01:40:10;;;;;;;7.00;5.18;;;25.00;65.80;;;;;;4340457;32;20463;-68
2021/07/19 01:42:37;;;;;;;7.37;4.78;;;24.90;66.90;;;;;;4340432;32;20082;-68
2021/07/19 01:45:06;;;;;;;8.07;4.62;;;25.00;66.00;;;;;;4352572;32;20081;-69
2021/07/19 01:47:32;;;;;;;7.20;4.80;;;25.00;64.40;;;;;;4339990;32;20080;-67
2021/07/19 01:49:59;;;;;;;6.97;4.93;;;25.10;60.40;;;;;;4340018;32;20501;-68
2021/07/19 01:52:26;;;;;;;5.93;4.53;;;25.20;58.50;;;;;;4340590;32;20485;-68
2021/07/19 01:54:53;;;;;;;8.65;5.15;;;25.20;58.10;;;;;;4328221;32;20082;-68
2021/07/19 01:57:20;;;;;;;8.02;4.60;;;25.20;60.60;;;;;;4340999;32;20145;-68
2021/07/19 01:59:47;;;;;;;7.12;5.00;;;25.20;60.10;;;;;;4327749;32;20441;-69
2021/07/19 02:02:15;;;;;;;5.87;4.82;;;25.40;57.10;;;;;;4339921;32;20426;-68
2021/07/19 02:04:41;;;;;;;6.32;4.85;;;25.40;56.30;;;;;;4340659;32;20074;-66
2021/07/19 02:07:07;;;;;;;6.12;4.72;;;25.50;56.80;;;;;;4352125;32;20077;-69
2021/07/19 02:09:34;;;;;;;7.65;5.30;;;25.50;56.70;;;;;;4340389;32;20081;-69
2021/07/19 02:12:01;;;;;;;7.20;4.97;;;25.50;56.70;;;;;;4327697;32;20087;-67
2021/07/19 02:14:28;;;;;;;6.62;5.30;;;25.50;56.40;;;;;;4352068;32;20234;-69
2021/07/19 02:16:54;;;;;;;6.62;4.50;;;25.60;57.10;;;;;;4340513;32;20136;-68
2021/07/19 02:19:23;;;;;;;8.50;5.03;;;25.50;57.80;;;;;;4337154;32;20156;-68
2021/07/19 02:21:49;;;;;;;9.43;5.15;;;25.40;59.20;;;;;;4347973;32;20086;-69
2021/07/19 02:24:16;;;;;;;8.98;5.50;;;25.50;59.30;;;;;;4340065;32;20062;-68
2021/07/19 02:26:43;;;;;;;7.68;5.18;;;25.50;59.30;;;;;;4339704;32;20471;-69
2021/07/19 02:29:09;;;;;;;8.55;5.30;;;25.50;59.60;;;;;;4340164;32;20081;-68
2021/07/19 02:31:35;;;;;;;8.95;5.45;;;25.60;58.50;;;;;;4328374;32;20074;-67
2021/07/19 02:34:01;;;;;;;10.90;4.95;;;25.70;58.40;;;;;;4340297;32;20082;-68
2021/07/19 02:36:29;;;;;;;8.07;5.12;;;25.70;58.20;;;;;;4327851;32;20084;-68
2021/07/19 02:38:55;;;;;;;8.68;5.10;;;25.80;58.60;;;;;;4352038;32;20093;-67
2021/07/19 02:41:25;;;;;;;7.28;5.07;;;25.70;58.90;;;;;;4339263;32;20074;-69
2021/07/19 02:43:53;;;;;;;8.18;5.47;;;25.70;59.60;;;;;;4339881;32;20081;-68
2021/07/19 02:46:24;;;;;;;6.55;5.25;;;25.70;60.50;;;;;;4331556;32;20089;-71
2021/07/19 02:48:56;;;;;;;6.62;5.12;;;25.90;61.00;;;;;;4330059;32;20066;-70
2021/07/19 02:51:23;;;;;;;6.70;5.05;;;25.80;61.20;;;;;;4339475;32;20159;-69
2021/07/19 02:53:50;;;;;;;6.25;4.87;;;25.90;61.10;;;;;;4351534;32;20505;-68
2021/07/19 02:56:17;;;;;;;8.70;5.15;;;26.00;61.20;;;;;;4327461;32;20080;-68
2021/07/19 02:58:44;;;;;;;9.25;5.28;;;26.00;61.40;;;;;;4339032;32;20074;-69
2021/07/19 03:01:10;;;;;;;7.15;4.78;;;26.10;61.00;;;;;;4351432;32;20514;-67
2021/07/19 03:03:37;;;;;;;7.68;4.80;;;26.10;61.00;;;;;;4326962;32;20112;-68
2021/07/19 03:06:09;;;;;;;7.40;5.22;;;26.20;61.10;;;;;;4339033;32;20133;-68
2021/07/19 03:08:40;;;;;;;7.32;5.07;;;26.20;60.40;;;;;;4327565;32;20079;-68
2021/07/19 03:11:10;;;;;;;6.60;5.32;;;26.20;60.20;;;;;;4327620;32;20158;-68
2021/07/19 03:13:36;;;;;;;8.13;5.22;;;26.30;60.10;;;;;;4327397;32;20069;-68
2021/07/19 03:16:03;;;;;;;9.95;5.82;;;26.40;61.50;;;;;;4338638;32;20563;-68
2021/07/19 03:18:30;;;;;;;8.82;5.00;;;26.20;63.20;;;;;;4339188;32;20239;-68
2021/07/19 03:20:56;;;;;;;9.93;5.53;;;26.10;64.10;;;;;;4339134;32;20513;-67
2021/07/19 03:23:24;;;;;;;10.07;5.62;;;26.20;63.70;;;;;;4338755;32;20078;-68
2021/07/19 03:25:51;;;;;;;10.63;5.65;;;26.20;64.60;;;;;;4338318;32;20550;-68
2021/07/19 03:28:18;;;;;;;15.60;7.85;;;26.20;66.20;;;;;;4338767;32;20182;-68
2021/07/19 03:30:44;;;;;;;13.60;7.95;;;26.00;68.30;;;;;;4326901;32;20496;-68
2021/07/19 03:33:10;;;;;;;16.87;8.85;;;25.90;68.40;;;;;;4338643;32;20059;-68
2021/07/19 03:35:37;;;;;;;13.77;8.90;;;25.80;70.50;;;;;;4338699;32;20460;-68
2021/07/19 03:38:03;;;;;;;13.30;8.70;;;26.00;71.00;;;;;;4338459;32;20090;-68
2021/07/19 03:40:30;;;;;;;12.77;8.20;;;26.00;72.80;;;;;;4338775;32;20070;-68
2021/07/19 03:42:58;;;;;;;16.73;9.18;;;26.00;73.70;;;;;;4326727;32;20082;-68
2021/07/19 03:45:25;;;;;;;11.07;7.82;;;26.00;75.60;;;;;;4326306;32;20176;-69
2021/07/19 03:47:51;;;;;;;15.15;9.07;;;26.10;76.80;;;;;;4338284;32;20093;-68
2021/07/19 03:50:17;;;;;;;17.20;8.30;;;26.10;78.60;;;;;;4325990;32;20113;-69
2021/07/19 03:52:46;;;;;;;14.38;8.52;;;26.20;79.10;;;;;;4349911;32;20538;-69
2021/07/19 03:55:14;;;;;;;13.07;6.85;;;26.20;80.60;;;;;;4326621;32;20093;-69
2021/07/19 03:57:41;;;;;;;12.60;7.95;;;26.40;80.90;;;;;;4338810;32;20085;-68
2021/07/19 04:00:17;;;;;;;16.15;9.57;;;26.50;79.10;;;;;;4338496;32;20086;-68
2021/07/19 04:02:48;;;;;;;;;;;26.50;80.10;;;;;;4338678;32;20516;-67
2021/07/19 04:05:15;;;;;;;11.27;7.47;;;26.70;80.80;;;;;;4350796;32;19980;-68
2021/07/19 04:07:46;;;;;;;14.07;8.13;;;26.80;78.90;;;;;;4338398;32;20455;-68
2021/07/19 04:10:19;;;;;;;14.25;8.95;;;26.70;78.30;;;;;;4326272;32;20082;-69
2021/07/19 04:12:48;;;;;;;17.23;9.27;;;26.70;78.30;;;;;;4326936;32;20070;-68
2021/07/19 04:15:15;;;;;;;17.85;9.60;;;26.70;76.20;;;;;;4326266;32;20093;-68
2021/07/19 04:17:43;;;;;;;13.25;8.38;;;26.60;76.30;;;;;;4338317;32;20158;-67
2021/07/19 04:20:11;;;;;;;15.15;8.38;;;26.70;75.50;;;;;;4338289;32;20089;-68
2021/07/19 04:22:37;;;;;;;14.60;7.07;;;26.80;74.50;;;;;;4338335;32;20579;-68
2021/07/19 04:25:09;;;;;;;12.25;8.63;;;26.90;73.60;;;;;;4337643;32;20090;-67
2021/07/19 04:27:39;;;;;;;14.27;9.00;;;27.10;72.50;;;;;;4350250;32;20239;-67
2021/07/19 04:30:06;;;;;;;12.63;8.18;;;27.30;72.50;;;;;;4350335;32;20081;-70
2021/07/19 04:32:32;;;;;;;12.13;8.32;;;27.20;71.50;;;;;;4326034;32;20502;-67
2021/07/19 04:34:58;;;;;;;16.25;8.70;;;27.30;70.20;;;;;;4350430;32;20519;-68
2021/07/19 04:37:25;;;;;;;15.88;7.72;;;27.50;69.00;;;;;;4349761;32;20167;-68
2021/07/19 04:39:52;;;;;;;11.77;7.40;;;28.60;61.60;;;;;;4325500;32;20094;-69
2021/07/19 04:42:18;;;;;;;8.68;6.15;;;30.40;50.00;;;;;;4337902;32;20079;-69
2021/07/19 04:44:44;;;;;;;9.75;6.87;;;30.60;47.70;;;;;;4349985;32;20094;-67
2021/07/19 04:47:10;;;;;;;9.60;5.90;;;30.20;46.10;;;;;;4337789;32;20167;-68
2021/07/19 04:49:41;;;;;;;8.85;6.20;;;30.60;45.40;;;;;;4338904;32;20086;-68
2021/07/19 04:52:07;;;;;;;8.63;5.90;;;30.80;43.80;;;;;;4337868;32;20075;-69
2021/07/19 04:54:38;;;;;;;8.88;5.95;;;31.30;41.70;;;;;;4350461;32;20081;-68
2021/07/19 04:57:09;;;;;;;8.30;6.18;;;31.70;40.00;;;;;;4362757;32;20070;-68
2021/07/19 04:59:44;;;;;;;11.00;6.43;;;31.90;39.20;;;;;;4338251;32;20079;-67
2021/07/19 05:02:13;;;;;;;6.97;5.28;;;31.80;39.90;;;;;;4338404;32;20078;-68
2021/07/19 05:04:40;;;;;;;7.32;5.50;;;31.60;39.40;;;;;;4341118;32;20077;-68
2021/07/19 05:07:06;;;;;;;10.02;6.57;;;32.20;38.60;;;;;;4342263;32;20085;-69
2021/07/19 05:09:32;;;;;;;10.32;6.85;;;32.50;38.40;;;;;;4352162;32;20074;-69
2021/07/19 05:11:58;;;;;;;9.57;6.07;;;32.00;38.40;;;;;;4355889;32;20078;-68
2021/07/19 05:14:24;;;;;;;11.50;7.20;;;32.20;38.50;;;;;;4328697;32;20166;-69
2021/07/19 05:16:51;;;;;;;9.70;5.82;;;32.00;38.80;;;;;;4340346;32;20541;-69
2021/07/19 05:19:17;;;;;;;12.32;8.32;;;32.00;39.70;;;;;;4340607;32;20097;-69
2021/07/19 05:21:44;;;;;;;17.30;8.10;;;31.90;39.00;;;;;;4352542;32;20086;-69
2021/07/19 05:24:10;;;;;;;12.57;8.55;;;32.20;38.60;;;;;;4340721;32;20086;-69
2021/07/19 05:26:37;;;;;;;12.57;7.90;;;31.50;40.40;;;;;;4352570;32;20097;-69
2021/07/19 05:29:04;;;;;;;11.73;8.07;;;32.10;39.50;;;;;;4338926;32;20149;-69
2021/07/19 05:31:31;;;;;;;12.43;8.27;;;32.40;39.40;;;;;;4345834;32;20658;-71
2021/07/19 05:33:57;;;;;;;9.95;6.87;;;32.50;38.60;;;;;;4335589;32;20185;-71
2021/07/19 05:36:24;;;;;;;10.70;7.28;;;33.20;36.90;;;;;;4352401;32;20070;-71
2021/07/19 05:38:51;;;;;;;16.00;9.48;;;33.40;36.40;;;;;;4315461;32;20152;-70
2021/07/19 05:41:17;;;;;;;15.27;8.90;;;32.10;38.70;;;;;;4335335;32;20105;-72
2021/07/19 05:43:44;;;;;;;17.23;8.93;;;32.30;39.20;;;;;;4372127;32;20201;-73
2021/07/19 05:46:10;;;;;;;13.35;9.15;;;32.90;36.80;;;;;;4358276;32;20086;-73
2021/07/19 05:48:36;;;;;;;15.18;8.85;;;33.20;36.10;;;;;;4353650;32;20079;-73
2021/07/19 05:51:03;;;;;;;13.60;9.02;;;34.00;35.20;;;;;;4355943;32;20120;-73
2021/07/19 05:53:29;;;;;;;14.60;9.00;;;33.80;34.60;;;;;;4347564;32;20070;-73
2021/07/19 05:55:55;;;;;;;14.55;9.75;;;34.00;34.60;;;;;;4337371;32;20175;-74
2021/07/19 05:58:21;;;;;;;22.20;10.70;;;33.40;35.00;;;;;;4349555;32;20078;-74
2021/07/19 06:00:47;;;;;;;13.60;8.75;;;33.00;35.20;;;;;;4362732;32;20097;-75
2021/07/19 06:03:13;;;;;;;14.45;8.82;;;32.80;37.20;;;;;;4354842;32;20106;-71
2021/07/19 06:05:40;;;;;;;15.98;8.60;;;33.30;36.30;;;;;;4364229;32;20231;-72
2021/07/19 06:08:06;;;;;;;15.10;8.20;;;33.90;34.00;;;;;;4364466;32;20074;-74
2021/07/19 06:10:32;;;;;;;15.75;9.18;;;33.60;34.20;;;;;;4349897;32;20065;-75
2021/07/19 06:12:59;;;;;;;14.60;7.90;;;33.80;32.80;;;;;;4363483;32;20517;-73
2021/07/19 06:15:25;;;;;;;12.98;8.45;;;33.50;33.80;;;;;;4339137;32;20078;-73
2021/07/19 06:17:51;;;;;;;11.32;7.78;;;33.90;33.20;;;;;;4351257;32;20145;-73
2021/07/19 06:20:20;;;;;;;12.30;7.78;;;34.60;32.10;;;;;;4363268;32;20074;-70
2021/07/19 06:22:47;;;;;;;12.43;8.13;;;34.90;30.80;;;;;;4337022;32;20086;-71
2021/07/19 06:25:15;;;;;;;11.70;7.93;;;34.70;30.60;;;;;;4348885;32;20102;-74
2021/07/19 06:27:42;;;;;;;16.27;8.43;;;33.90;31.40;;;;;;4352902;32;21030;-72
2021/07/19 06:30:13;;;;;;;10.60;8.13;;;34.00;32.70;;;;;;4359390;32;20148;-73
2021/07/19 06:32:40;;;;;;;12.10;8.32;;;32.70;33.70;;;;;;4338390;32;20093;-73
2021/07/19 06:35:07;;;;;;;12.37;8.27;;;32.00;36.50;;;;;;4345694;32;20148;-73
2021/07/19 06:37:33;;;;;;;10.23;8.52;;;31.80;37.50;;;;;;4325596;32;20101;-75
2021/07/19 06:40:00;;;;;;;15.23;10.23;;;32.00;37.80;;;;;;4354083;32;20069;-73
2021/07/19 06:42:26;;;;;;;9.98;7.78;;;31.40;39.20;;;;;;4341000;32;20138;-73
2021/07/19 06:44:57;;;;;;;12.45;8.40;;;31.70;38.60;;;;;;4328133;32;20501;-72
2021/07/19 06:47:27;;;;;;;9.95;8.18;;;32.00;37.80;;;;;;4329298;32;20051;-73
2021/07/19 06:49:57;;;;;;;12.40;8.55;;;32.50;36.80;;;;;;4324280;32;20074;-74
2021/07/19 06:52:23;;;;;;;10.70;7.80;;;31.70;38.20;;;;;;4348545;32;20169;-73
2021/07/19 06:54:50;;;;;;;11.90;8.02;;;32.00;38.30;;;;;;4337510;32;20096;-74
2021/07/19 06:57:17;;;;;;;10.75;8.25;;;32.00;37.90;;;;;;4356364;32;20153;-73
2021/07/19 06:59:44;;;;;;;11.10;8.50;;;32.20;37.40;;;;;;4335335;32;20066;-73
2021/07/19 07:02:10;;;;;;;14.73;8.60;;;32.10;37.10;;;;;;4344331;32;20078;-72
2021/07/19 07:04:36;;;;;;;11.32;8.75;;;32.30;36.60;;;;;;4336635;32;20106;-73
2021/07/19 07:07:03;;;;;;;9.80;7.85;;;32.60;36.30;;;;;;4344441;32;20107;-74
2021/07/19 07:09:29;;;;;;;12.13;9.65;;;32.90;36.10;;;;;;4336440;32;20117;-67
2021/07/19 07:11:56;;;;;;;14.05;7.30;;;33.10;35.10;;;;;;4341867;32;20078;-66
2021/07/19 07:14:22;;;;;;;12.27;7.18;;;33.20;36.10;;;;;;4335527;32;20090;-78
2021/07/19 07:16:48;;;;;;;12.13;7.85;;;32.80;37.30;;;;;;4350063;32;20182;-79
2021/07/19 07:19:15;;;;;;;9.27;7.37;;;32.30;37.20;;;;;;4356869;32;20170;-80
2021/07/19 07:21:41;;;;;;;11.73;7.40;;;32.10;37.60;;;;;;4355883;32;20102;-78
2021/07/19 07:24:07;;;;;;;9.80;7.53;;;32.40;38.10;;;;;;4339403;32;20093;-64
2021/07/19 07:26:33;;;;;;;10.35;7.22;;;32.40;37.30;;;;;;4358382;32;20078;-67
2021/07/19 07:29:00;;;;;;;12.35;9.23;;;32.40;37.50;;;;;;4341328;32;20074;-68
2021/07/19 07:31:29;;;;;;;9.82;8.13;;;33.00;37.50;;;;;;4339204;32;20565;-76
2021/07/19 07:33:57;;;;;;;11.27;8.77;;;32.40;37.60;;;;;;4334545;32;20070;-71
2021/07/19 07:36:29;;;;;;;13.70;7.78;;;32.10;38.60;;;;;;4322182;32;20067;-74
2021/07/19 07:38:56;;;;;;;10.63;8.38;;;32.40;38.30;;;;;;4342664;32;20112;-72
2021/07/19 07:41:22;;;;;;;9.05;7.97;;;32.90;36.60;;;;;;4330938;32;20528;-72
2021/07/19 07:43:48;;;;;;;11.02;8.15;;;33.40;35.80;;;;;;4354450;32;20078;-72
2021/07/19 07:46:15;;;;;;;11.68;8.32;;;33.20;35.00;;;;;;4361863;32;20122;-73
2021/07/19 07:48:41;;;;;;;12.10;7.90;;;32.50;36.60;;;;;;4324383;32;20085;-73
2021/07/19 07:51:09;;;;;;;10.18;7.87;;;32.70;36.10;;;;;;4323972;32;20082;-74
2021/07/19 07:53:36;;;;;;;9.75;7.47;;;32.90;37.50;;;;;;4349822;32;20164;-76
2021/07/19 07:56:02;;;;;;;10.73;7.85;;;32.90;36.40;;;;;;4319125;32;20070;-73
2021/07/19 07:58:29;;;;;;;13.18;8.10;;;33.00;37.10;;;;;;4352611;32;20065;-72
2021/07/19 08:00:55;;;;;;;10.75;8.15;;;33.60;35.00;;;;;;4328453;32;20477;-73
2021/07/19 08:03:22;;;;;;;10.68;7.55;;;33.20;35.70;;;;;;4314541;32;20170;-75
2021/07/19 08:05:48;;;;;;;11.07;8.35;;;32.90;36.10;;;;;;4325199;32;20057;-76
2021/07/19 08:08:15;;;;;;;10.05;8.32;;;33.30;35.10;;;;;;4356867;32;20484;-71
2021/07/19 08:10:41;;;;;;;11.15;8.15;;;33.50;34.90;;;;;;4356877;32;20092;-73
2021/07/19 08:13:07;;;;;;;10.98;7.80;;;33.20;35.50;;;;;;4331534;32;20584;-74
2021/07/19 08:15:37;;;;;;;11.77;8.13;;;33.10;35.50;;;;;;4335062;32;20082;-69
2021/07/19 08:18:04;;;;;;;10.30;8.35;;;33.10;36.10;;;;;;4336270;32;20126;-69
2021/07/19 08:20:30;;;;;;;10.65;8.48;;;33.10;35.90;;;;;;4332959;32;20074;-69
2021/07/19 08:22:57;;;;;;;11.35;8.40;;;33.20;35.10;;;;;;4332561;32;20142;-69
2021/07/19 08:25:23;;;;;;;12.55;8.88;;;33.40;36.20;;;;;;4332434;32;20481;-70
2021/07/19 08:27:49;;;;;;;12.25;8.45;;;33.70;33.90;;;;;;4345851;32;20092;-69
2021/07/19 08:30:16;;;;;;;11.05;8.15;;;33.20;35.00;;;;;;4322410;32;20515;-69
2021/07/19 08:32:43;;;;;;;11.23;8.68;;;33.10;35.80;;;;;;4321943;32;20603;-69
2021/07/19 08:35:10;;;;;;;9.68;7.97;;;32.60;36.70;;;;;;4310697;32;20497;-69
2021/07/19 08:37:39;;;;;;;10.95;8.02;;;33.00;36.50;;;;;;4347427;32;20077;-70
2021/07/19 08:40:07;;;;;;;11.82;8.82;;;33.40;35.20;;;;;;4335114;32;20517;-70
2021/07/19 08:42:34;;;;;;;12.20;9.38;;;33.50;34.20;;;;;;4323262;32;20532;-70
2021/07/19 08:45:04;;;;;;;13.52;8.23;;;33.50;34.00;;;;;;4323203;32;20083;-70
2021/07/19 08:47:30;;;;;;;12.07;8.38;;;34.40;33.00;;;;;;4335924;32;20459;-70
2021/07/19 08:49:56;;;;;;;10.25;7.62;;;34.30;32.90;;;;;;4347717;32;20085;-70
2021/07/19 08:52:22;;;;;;;10.45;8.38;;;33.60;34.10;;;;;;4361053;32;20454;-70
2021/07/19 08:54:49;;;;;;;9.70;7.50;;;33.00;35.30;;;;;;4334906;32;20173;-70
2021/07/19 08:57:20;;;;;;;11.82;8.45;;;33.70;34.80;;;;;;4322705;32;20089;-70
2021/07/19 08:59:47;;;;;;;13.02;7.95;;;33.80;33.80;;;;;;4311288;32;20158;-70
2021/07/19 09:02:14;;;;;;;10.90;7.95;;;33.90;33.10;;;;;;4323012;32;20612;-70
2021/07/19 09:04:40;;;;;;;11.23;8.43;;;34.20;33.20;;;;;;4322897;32;20513;-69
2021/07/19 09:07:06;;;;;;;10.48;7.97;;;34.30;31.70;;;;;;4322490;32;20260;-70
2021/07/19 09:09:34;;;;;;;10.15;7.22;;;33.40;33.80;;;;;;4335023;32;20090;-69
2021/07/19 09:12:05;;;;;;;12.02;8.02;;;33.60;32.90;;;;;;4311190;32;20224;-70
2021/07/19 09:14:32;;;;;;;9.32;7.75;;;33.90;30.90;;;;;;4323813;32;20512;-70
2021/07/19 09:16:58;;;;;;;13.18;9.27;;;34.30;29.90;;;;;;4322956;32;20081;-70
2021/07/19 09:19:27;;;;;;;13.43;8.07;;;33.40;31.20;;;;;;4335054;32;20090;-70
2021/07/19 09:22:01;;;;;;;9.95;8.60;;;33.70;31.10;;;;;;4311127;32;20082;-70
2021/07/19 09:24:32;;;;;;;11.20;8.18;;;33.70;31.30;;;;;;4347500;32;20138;-70
2021/07/19 09:26:59;;;;;;;12.07;7.95;;;32.80;32.50;;;;;;4310970;32;20093;-70
2021/07/19 09:29:25;;;;;;;10.18;7.82;;;33.10;32.10;;;;;;4334879;32;20090;-68
2021/07/19 09:31:57;;;;;;;12.37;9.20;;;33.70;31.20;;;;;;4322849;32;20092;-69
2021/07/19 09:34:28;;;;;;;11.25;8.30;;;34.20;29.70;;;;;;4322600;32;20154;-70
2021/07/19 09:37:00;;;;;;;11.12;8.25;;;33.80;30.30;;;;;;4333331;32;20098;-70
2021/07/19 09:39:28;;;;;;;11.12;8.48;;;34.40;29.80;;;;;;4320853;32;20079;-69
2021/07/19 09:42:11;;;;;;;10.73;8.25;;;33.40;30.30;;;;;;4321131;32;20507;-68
2021/07/19 09:44:38;;;;;;;9.88;7.53;;;33.80;31.10;;;;;;4356896;32;20075;-69
2021/07/19 09:47:07;;;;;;;10.00;8.13;;;33.30;30.80;;;;;;4321209;32;20074;-70
2021/07/19 09:49:35;;;;;;;9.77;7.80;;;33.50;30.60;;;;;;4342308;32;20067;-69
2021/07/19 09:52:10;;;;;;;11.40;7.72;;;32.70;30.60;;;;;;4338459;32;20157;-71
2021/07/19 09:54:39;;;;;;;9.65;7.82;;;32.60;31.90;;;;;;4337704;32;20075;-69
2021/07/19 09:57:06;;;;;;;10.50;7.43;;;33.30;30.40;;;;;;4325612;32;20524;-69
2021/07/19 09:59:33;;;;;;;9.50;7.82;;;33.80;30.30;;;;;;4337253;32;20067;-69
2021/07/19 10:02:01;;;;;;;9.75;7.10;;;33.60;30.20;;;;;;4337651;32;20085;-69
2021/07/19 10:04:27;;;;;;;10.10;8.82;;;33.50;31.70;;;;;;4337738;32;20239;-68
2021/07/19 10:06:55;;;;;;;10.20;7.68;;;33.30;31.00;;;;;;4324768;32;20078;-70
2021/07/19 10:09:22;;;;;;;10.25;7.72;;;34.00;30.80;;;;;;4325288;32;20080;-70
2021/07/19 10:11:53;;;;;;;8.73;7.75;;;34.20;29.70;;;;;;4337052;32;20098;-68
2021/07/19 10:14:38;;;;;;;9.25;7.60;;;33.40;31.50;;;;;;4326089;32;20231;-69
2021/07/19 10:17:04;;;;;;;11.23;7.47;;;33.30;30.70;;;;;;4313471;32;20073;-71
2021/07/19 10:19:32;;;;;;;8.75;7.25;;;33.00;31.40;;;;;;4325149;32;20465;-70
2021/07/19 10:21:58;;;;;;;9.30;7.57;;;33.00;32.40;;;;;;4325520;32;20088;-70
2021/07/19 10:24:24;;;;;;;12.40;8.00;;;32.90;32.60;;;;;;4337097;32;20079;-69
2021/07/19 10:26:51;;;;;;;11.25;7.03;;;33.30;32.70;;;;;;4349123;32;20082;-69
2021/07/19 10:29:18;;;;;;;8.52;7.03;;;33.40;32.40;;;;;;4313196;32;20073;-69
2021/07/19 10:31:44;;;;;;;9.15;7.60;;;33.20;32.10;;;;;;4312836;32;20142;-69
2021/07/19 10:34:11;;;;;;;12.37;7.80;;;33.30;31.90;;;;;;4312959;32;20083;-70
2021/07/19 10:36:47;;;;;;;8.68;7.03;;;33.10;31.70;;;;;;4324347;32;20086;-69
2021/07/19 10:39:36;;;;;;;11.18;7.28;;;33.10;32.10;;;;;;4345238;32;20114;-69
2021/07/19 10:42:10;;;;;;;10.55;8.07;;;33.70;30.70;;;;;;4358646;32;20080;-71
2021/07/19 10:44:40;;;;;;;10.43;7.70;;;33.00;31.60;;;;;;4324845;32;20070;-71
2021/07/19 10:47:22;;;;;;;11.32;6.78;;;33.00;32.30;;;;;;4323270;32;20074;-71
2021/07/19 10:50:04;;;;;;;12.52;7.18;;;32.80;32.00;;;;;;4338010;32;20090;-69
2021/07/19 10:52:38;;;;;;;11.48;7.55;;;32.70;32.40;;;;;;4352762;32;20070;-68
2021/07/19 10:55:07;;;;;;;12.37;7.35;;;32.50;32.50;;;;;;4344259;32;20118;-66
2021/07/19 10:57:40;;;;;;;9.38;7.32;;;32.80;32.70;;;;;;4341479;32;20066;-66
2021/07/19 11:00:13;;;;;;;10.13;6.80;;;33.40;31.00;;;;;;4326067;32;20114;-68
2021/07/19 11:02:39;;;;;;;10.15;6.95;;;34.00;29.40;;;;;;4350066;32;20540;-66
2021/07/19 11:05:08;;;;;;;11.18;7.15;;;33.60;31.00;;;;;;4338808;32;20065;-66
2021/07/19 11:07:43;;;;;;;9.13;7.57;;;32.90;31.90;;;;;;4334969;32;20117;-72
2021/07/19 11:10:22;;;;;;;11.85;7.95;;;32.90;32.10;;;;;;4349931;32;20154;-68
2021/07/19 11:12:53;;;;;;;10.00;8.07;;;32.90;32.40;;;;;;4335683;32;20174;-71
2021/07/19 11:15:21;;;;;;;13.02;7.70;;;33.30;32.60;;;;;;4347689;32;20162;-69
2021/07/19 11:17:51;;;;;;;9.00;7.03;;;33.80;30.80;;;;;;4350020;32;20086;-70
2021/07/19 11:20:17;;;;;;;8.85;7.70;;;34.10;30.50;;;;;;4352052;32;20090;-70
2021/07/19 11:22:44;;;;;;;10.80;7.65;;;33.70;31.90;;;;;;4344354;32;20085;-68
2021/07/19 11:25:14;;;;;;;11.07;8.13;;;33.00;33.50;;;;;;4313827;32;20294;-66
2021/07/19 11:27:43;;;;;;;11.18;8.70;;;32.90;33.30;;;;;;4312261;32;20067;-66
2021/07/19 11:30:19;;;;;;;9.82;7.12;;;33.10;33.40;;;;;;4337302;32;20062;-66
2021/07/19 11:32:46;;;;;;;10.20;8.10;;;33.10;33.50;;;;;;4347180;32;20093;-65
2021/07/19 11:35:19;;;;;;;13.05;8.13;;;33.20;33.10;;;;;;4324215;32;20456;-70
2021/07/19 11:37:48;;;;;;;11.57;8.13;;;33.40;32.40;;;;;;4361790;32;20130;-70
2021/07/19 11:40:40;;;;;;;11.35;7.50;;;33.70;31.40;;;;;;4344794;32;20093;-72
2021/07/19 11:43:18;;;;;;;8.57;7.62;;;34.30;30.00;;;;;;4342105;32;20070;-75
2021/07/19 11:45:49;;;;;;;10.95;7.93;;;34.70;29.70;;;;;;4335829;32;20120;-73
2021/07/19 11:48:21;;;;;;;10.98;7.95;;;35.40;29.00;;;;;;4349863;32;20529;-69
2021/07/19 11:50:48;;;;;;;8.77;7.18;;;35.00;28.80;;;;;;4341425;32;20500;-66
2021/07/19 11:53:14;;;;;;;10.43;7.80;;;35.20;29.40;;;;;;4315482;32;20442;-68
2021/07/19 11:55:40;;;;;;;10.15;7.72;;;35.50;29.10;;;;;;4332296;32;20201;-74
2021/07/19 11:58:07;;;;;;;9.95;7.80;;;35.10;28.50;;;;;;4342405;32;20074;-70
2021/07/19 12:00:41;;;;;;;9.68;8.13;;;34.80;28.70;;;;;;4322314;32;20117;-69
2021/07/19 12:03:13;;;;;;;11.45;8.60;;;35.00;29.20;;;;;;4345311;32;20186;-76
2021/07/19 12:06:05;;;;;;;9.55;7.80;;;34.90;29.50;;;;;;4332591;32;20082;-78
2021/07/19 12:08:33;;;;;;;11.82;8.05;;;35.20;28.60;;;;;;4330244;32;20545;-71
2021/07/19 12:11:08;;;;;;;12.85;8.57;;;34.90;28.90;;;;;;4344996;32;20170;-74
2021/07/19 12:13:39;;;;;;;10.00;7.75;;;34.10;29.70;;;;;;4347038;32;20147;-79
2021/07/19 12:16:06;;;;;;;12.37;8.70;;;34.10;31.30;;;;;;4315562;32;20082;-77
2021/07/19 12:18:35;;;;;;;12.05;8.68;;;34.20;29.80;;;;;;4348529;32;20094;-76
2021/07/19 12:21:05;;;;;;;11.65;8.40;;;34.00;30.00;;;;;;4340086;32;20553;-76
2021/07/19 12:23:52;;;;;;;12.60;8.25;;;34.00;31.00;;;;;;4352109;32;20090;-79
2021/07/19 12:26:33;;;;;;;10.90;7.97;;;34.00;30.50;;;;;;4334222;33;20566;-76
2021/07/19 12:29:12;;;;;;;10.65;7.82;;;33.10;33.70;;;;;;4339044;32;20061;-81
2021/07/19 12:31:42;;;;;;;10.02;7.75;;;33.10;34.10;;;;;;4337654;32;20090;-73
2021/07/19 12:34:14;;;;;;;10.77;8.02;;;32.80;34.10;;;;;;4345252;32;20075;-77
2021/07/19 12:36:41;;;;;;;13.65;8.05;;;33.10;33.70;;;;;;4320701;33;20137;-77
2021/07/19 12:39:13;;;;;;;9.73;7.53;;;33.50;33.00;;;;;;4318957;33;20341;-72
2021/07/19 12:41:40;;;;;;;10.98;8.10;;;33.30;32.80;;;;;;4320449;33;20085;-75
2021/07/19 12:44:07;;;;;;;9.85;8.15;;;33.80;33.50;;;;;;4332532;33;20122;-79
2021/07/19 12:46:41;;;;;;;10.57;7.85;;;33.70;31.60;;;;;;4328409;33;20184;-73